sensor_id;sensor_type;location;lat;lon;timestamp;P1;durP1;ratioP1;P2;durP2;ratioP2
18711;SDS011;9485;49.386;8.674;2023-06-14T00:00:58;2.80;;;2.60;;
18711;SDS011;9485;49.386;8.674;2023-06-14T00:06:20;4.93;;;3.08;;
18711;SDS011;9485;49.386;8.674;2023-06-14T00:11:43;3.20;;;2.90;;
18711;SDS011;9485;49.386;8.674;2023-06-14T00:17:04;3.35;;;3.05;;
18711;SDS011;9485;49.386;8.674;2023-06-14T00:22:27;4.28;;;3.38;;
18711;SDS011;9485;49.386;8.674;2023-06-14T00:27:49;3.67;;;3.38;;
18711;SDS011;9485;49.386;8.674;2023-06-14T00:33:10;4.63;;;3.20;;
18711;SDS011;9485;49.386;8.674;2023-06-14T00:38:32;3.78;;;3.40;;
18711;SDS011;9485;49.386;8.674;2023-06-14T00:43:52;3.58;;;3.33;;
18711;SDS011;9485;49.386;8.674;2023-06-14T00:49:15;4.45;;;4.00;;
18711;SDS011;9485;49.386;8.674;2023-06-14T00:54:39;7.25;;;3.25;;
18711;SDS011;9485;49.386;8.674;2023-06-14T01:00:00;3.42;;;3.03;;
18711;SDS011;9485;49.386;8.674;2023-06-14T01:05:20;5.75;;;2.75;;
18711;SDS011;9485;49.386;8.674;2023-06-14T01:10:46;5.05;;;2.88;;
18711;SDS011;9485;49.386;8.674;2023-06-14T01:16:14;3.33;;;2.60;;
18711;SDS011;9485;49.386;8.674;2023-06-14T01:21:35;3.05;;;2.60;;
18711;SDS011;9485;49.386;8.674;2023-06-14T01:27:02;2.85;;;2.65;;
18711;SDS011;9485;49.386;8.674;2023-06-14T01:32:23;3.20;;;2.90;;
18711;SDS011;9485;49.386;8.674;2023-06-14T01:37:47;3.25;;;2.95;;
18711;SDS011;9485;49.386;8.674;2023-06-14T01:43:10;3.40;;;2.85;;
18711;SDS011;9485;49.386;8.674;2023-06-14T01:48:33;3.53;;;3.15;;
18711;SDS011;9485;49.386;8.674;2023-06-14T01:53:56;4.80;;;3.53;;
18711;SDS011;9485;49.386;8.674;2023-06-14T01:59:17;3.28;;;2.97;;
18711;SDS011;9485;49.386;8.674;2023-06-14T02:04:38;3.65;;;2.90;;
18711;SDS011;9485;49.386;8.674;2023-06-14T02:09:59;3.85;;;3.00;;
18711;SDS011;9485;49.386;8.674;2023-06-14T02:15:20;4.45;;;3.55;;
18711;SDS011;9485;49.386;8.674;2023-06-14T02:20:42;3.20;;;2.90;;
18711;SDS011;9485;49.386;8.674;2023-06-14T02:26:04;5.10;;;2.70;;
18711;SDS011;9485;49.386;8.674;2023-06-14T02:31:28;3.35;;;3.00;;
18711;SDS011;9485;49.386;8.674;2023-06-14T02:36:49;3.22;;;2.95;;
18711;SDS011;9485;49.386;8.674;2023-06-14T02:42:12;3.10;;;2.83;;
18711;SDS011;9485;49.386;8.674;2023-06-14T02:47:35;3.92;;;2.92;;
18711;SDS011;9485;49.386;8.674;2023-06-14T02:52:57;3.10;;;2.70;;
18711;SDS011;9485;49.386;8.674;2023-06-14T02:58:18;4.43;;;3.13;;
18711;SDS011;9485;49.386;8.674;2023-06-14T03:03:40;4.32;;;3.03;;
18711;SDS011;9485;49.386;8.674;2023-06-14T03:09:01;3.58;;;3.25;;
18711;SDS011;9485;49.386;8.674;2023-06-14T03:14:24;3.33;;;3.03;;
18711;SDS011;9485;49.386;8.674;2023-06-14T03:19:47;3.55;;;2.97;;
18711;SDS011;9485;49.386;8.674;2023-06-14T03:25:09;4.15;;;2.90;;
18711;SDS011;9485;49.386;8.674;2023-06-14T03:30:32;3.38;;;3.08;;
18711;SDS011;9485;49.386;8.674;2023-06-14T03:35:55;4.68;;;2.70;;
18711;SDS011;9485;49.386;8.674;2023-06-14T03:41:16;5.30;;;2.60;;
18711;SDS011;9485;49.386;8.674;2023-06-14T03:46:37;3.22;;;2.90;;
18711;SDS011;9485;49.386;8.674;2023-06-14T03:51:59;3.10;;;2.80;;
18711;SDS011;9485;49.386;8.674;2023-06-14T03:57:21;3.17;;;2.80;;
18711;SDS011;9485;49.386;8.674;2023-06-14T04:02:44;3.10;;;2.90;;
18711;SDS011;9485;49.386;8.674;2023-06-14T04:08:06;3.38;;;2.88;;
18711;SDS011;9485;49.386;8.674;2023-06-14T04:13:27;2.97;;;2.45;;
18711;SDS011;9485;49.386;8.674;2023-06-14T04:18:48;4.97;;;2.63;;
18711;SDS011;9485;49.386;8.674;2023-06-14T04:24:12;4.32;;;3.33;;
18711;SDS011;9485;49.386;8.674;2023-06-14T04:29:36;3.63;;;3.28;;
18711;SDS011;9485;49.386;8.674;2023-06-14T04:35:01;3.40;;;3.10;;
18711;SDS011;9485;49.386;8.674;2023-06-14T04:40:25;4.22;;;3.25;;
18711;SDS011;9485;49.386;8.674;2023-06-14T04:45:45;4.07;;;3.67;;
18711;SDS011;9485;49.386;8.674;2023-06-14T04:51:07;4.30;;;3.10;;
18711;SDS011;9485;49.386;8.674;2023-06-14T04:56:29;3.63;;;3.28;;
18711;SDS011;9485;49.386;8.674;2023-06-14T05:01:50;5.32;;;3.50;;
18711;SDS011;9485;49.386;8.674;2023-06-14T05:07:16;3.93;;;3.53;;
18711;SDS011;9485;49.386;8.674;2023-06-14T05:12:39;4.40;;;3.67;;
18711;SDS011;9485;49.386;8.674;2023-06-14T05:18:03;3.72;;;3.15;;
18711;SDS011;9485;49.386;8.674;2023-06-14T05:23:27;4.93;;;3.45;;
18711;SDS011;9485;49.386;8.674;2023-06-14T05:28:51;4.43;;;3.63;;
18711;SDS011;9485;49.386;8.674;2023-06-14T05:34:12;4.35;;;3.90;;
18711;SDS011;9485;49.386;8.674;2023-06-14T05:39:34;5.28;;;3.72;;
18711;SDS011;9485;49.386;8.674;2023-06-14T05:44:57;5.03;;;3.75;;
18711;SDS011;9485;49.386;8.674;2023-06-14T05:50:18;5.15;;;3.60;;
18711;SDS011;9485;49.386;8.674;2023-06-14T05:55:39;3.88;;;3.45;;
18711;SDS011;9485;49.386;8.674;2023-06-14T06:01:01;4.50;;;3.30;;
18711;SDS011;9485;49.386;8.674;2023-06-14T06:06:22;4.40;;;3.40;;
18711;SDS011;9485;49.386;8.674;2023-06-14T06:11:43;7.30;;;3.67;;
18711;SDS011;9485;49.386;8.674;2023-06-14T06:17:06;3.92;;;3.60;;
18711;SDS011;9485;49.386;8.674;2023-06-14T06:22:28;3.97;;;3.58;;
18711;SDS011;9485;49.386;8.674;2023-06-14T06:27:49;4.68;;;3.75;;
18711;SDS011;9485;49.386;8.674;2023-06-14T06:33:12;3.65;;;3.35;;
18711;SDS011;9485;49.386;8.674;2023-06-14T06:38:34;3.42;;;3.13;;
18711;SDS011;9485;49.386;8.674;2023-06-14T06:43:55;3.75;;;3.33;;
18711;SDS011;9485;49.386;8.674;2023-06-14T06:49:22;4.18;;;3.03;;
18711;SDS011;9485;49.386;8.674;2023-06-14T06:54:43;4.57;;;3.30;;
18711;SDS011;9485;49.386;8.674;2023-06-14T07:00:04;4.43;;;3.13;;
18711;SDS011;9485;49.386;8.674;2023-06-14T07:05:33;3.72;;;3.10;;
18711;SDS011;9485;49.386;8.674;2023-06-14T07:10:55;3.13;;;2.75;;
18711;SDS011;9485;49.386;8.674;2023-06-14T07:16:16;3.45;;;3.13;;
18711;SDS011;9485;49.386;8.674;2023-06-14T07:21:38;3.30;;;2.80;;
18711;SDS011;9485;49.386;8.674;2023-06-14T07:26:59;4.05;;;2.85;;
18711;SDS011;9485;49.386;8.674;2023-06-14T07:32:21;3.15;;;2.60;;
18711;SDS011;9485;49.386;8.674;2023-06-14T07:37:44;3.03;;;2.70;;
18711;SDS011;9485;49.386;8.674;2023-06-14T07:43:05;2.97;;;2.22;;
18711;SDS011;9485;49.386;8.674;2023-06-14T07:48:26;3.35;;;2.60;;
18711;SDS011;9485;49.386;8.674;2023-06-14T07:53:49;2.97;;;2.63;;
18711;SDS011;9485;49.386;8.674;2023-06-14T07:59:10;2.67;;;2.47;;
18711;SDS011;9485;49.386;8.674;2023-06-14T08:04:31;2.53;;;2.33;;
18711;SDS011;9485;49.386;8.674;2023-06-14T08:09:54;3.08;;;2.75;;
18711;SDS011;9485;49.386;8.674;2023-06-14T08:15:15;2.70;;;2.40;;
18711;SDS011;9485;49.386;8.674;2023-06-14T08:20:37;4.82;;;2.53;;
18711;SDS011;9485;49.386;8.674;2023-06-14T08:26:00;3.13;;;2.47;;
18711;SDS011;9485;49.386;8.674;2023-06-14T08:31:23;4.15;;;2.20;;
18711;SDS011;9485;49.386;8.674;2023-06-14T08:36:44;2.70;;;2.10;;
18711;SDS011;9485;49.386;8.674;2023-06-14T08:42:08;5.35;;;2.47;;
18711;SDS011;9485;49.386;8.674;2023-06-14T08:47:30;2.60;;;2.40;;
18711;SDS011;9485;49.386;8.674;2023-06-14T08:52:56;2.67;;;2.47;;
18711;SDS011;9485;49.386;8.674;2023-06-14T08:58:22;2.75;;;2.55;;
18711;SDS011;9485;49.386;8.674;2023-06-14T09:03:43;4.22;;;2.60;;
18711;SDS011;9485;49.386;8.674;2023-06-14T09:09:04;2.90;;;2.70;;
18711;SDS011;9485;49.386;8.674;2023-06-14T09:14:27;4.13;;;2.70;;
18711;SDS011;9485;49.386;8.674;2023-06-14T09:19:49;2.15;;;1.95;;
18711;SDS011;9485;49.386;8.674;2023-06-14T09:25:11;3.97;;;2.70;;
18711;SDS011;9485;49.386;8.674;2023-06-14T09:30:36;4.55;;;2.40;;
18711;SDS011;9485;49.386;8.674;2023-06-14T09:35:59;3.03;;;2.30;;
18711;SDS011;9485;49.386;8.674;2023-06-14T09:41:20;3.70;;;2.78;;
18711;SDS011;9485;49.386;8.674;2023-06-14T09:46:53;2.50;;;2.30;;
18711;SDS011;9485;49.386;8.674;2023-06-14T09:52:16;2.95;;;2.70;;
18711;SDS011;9485;49.386;8.674;2023-06-14T09:57:40;3.35;;;2.50;;
18711;SDS011;9485;49.386;8.674;2023-06-14T10:03:09;2.47;;;2.28;;
18711;SDS011;9485;49.386;8.674;2023-06-14T10:08:33;2.58;;;2.22;;
18711;SDS011;9485;49.386;8.674;2023-06-14T10:13:58;3.45;;;2.28;;
18711;SDS011;9485;49.386;8.674;2023-06-14T10:19:21;2.95;;;2.20;;
18711;SDS011;9485;49.386;8.674;2023-06-14T10:24:55;2.47;;;2.10;;
18711;SDS011;9485;49.386;8.674;2023-06-14T10:30:16;3.10;;;2.20;;
18711;SDS011;9485;49.386;8.674;2023-06-14T10:35:46;3.45;;;2.10;;
18711;SDS011;9485;49.386;8.674;2023-06-14T10:41:07;2.45;;;2.22;;
18711;SDS011;9485;49.386;8.674;2023-06-14T10:46:28;4.03;;;2.53;;
18711;SDS011;9485;49.386;8.674;2023-06-14T10:51:51;2.70;;;2.50;;
18711;SDS011;9485;49.386;8.674;2023-06-14T10:57:12;2.78;;;2.35;;
18711;SDS011;9485;49.386;8.674;2023-06-14T11:02:43;3.80;;;2.17;;
18711;SDS011;9485;49.386;8.674;2023-06-14T11:08:55;2.92;;;2.40;;
18711;SDS011;9485;49.386;8.674;2023-06-14T11:14:45;2.60;;;2.30;;
18711;SDS011;9485;49.386;8.674;2023-06-14T11:20:08;3.30;;;2.55;;
18711;SDS011;9485;49.386;8.674;2023-06-14T11:25:31;2.13;;;1.92;;
18711;SDS011;9485;49.386;8.674;2023-06-14T11:30:59;2.25;;;2.05;;
18711;SDS011;9485;49.386;8.674;2023-06-14T11:36:21;1.85;;;1.75;;
18711;SDS011;9485;49.386;8.674;2023-06-14T11:41:44;3.50;;;2.55;;
18711;SDS011;9485;49.386;8.674;2023-06-14T11:47:05;2.65;;;2.45;;
18711;SDS011;9485;49.386;8.674;2023-06-14T11:52:27;3.72;;;2.38;;
18711;SDS011;9485;49.386;8.674;2023-06-14T11:57:49;3.78;;;2.25;;
18711;SDS011;9485;49.386;8.674;2023-06-14T12:03:13;2.15;;;1.95;;
18711;SDS011;9485;49.386;8.674;2023-06-14T12:08:34;3.22;;;2.08;;
18711;SDS011;9485;49.386;8.674;2023-06-14T12:14:00;3.53;;;2.45;;
18711;SDS011;9485;49.386;8.674;2023-06-14T12:19:25;3.72;;;2.30;;
18711;SDS011;9485;49.386;8.674;2023-06-14T12:24:47;2.30;;;2.10;;
18711;SDS011;9485;49.386;8.674;2023-06-14T12:30:09;2.38;;;2.17;;
18711;SDS011;9485;49.386;8.674;2023-06-14T12:35:31;2.75;;;2.17;;
18711;SDS011;9485;49.386;8.674;2023-06-14T12:40:53;2.65;;;2.40;;
18711;SDS011;9485;49.386;8.674;2023-06-14T12:46:17;3.50;;;2.33;;
18711;SDS011;9485;49.386;8.674;2023-06-14T12:51:38;3.33;;;2.13;;
18711;SDS011;9485;49.386;8.674;2023-06-14T12:57:00;2.58;;;2.38;;
18711;SDS011;9485;49.386;8.674;2023-06-14T13:02:23;2.38;;;2.22;;
18711;SDS011;9485;49.386;8.674;2023-06-14T13:07:46;2.85;;;2.53;;
18711;SDS011;9485;49.386;8.674;2023-06-14T13:13:07;3.00;;;2.70;;
18711;SDS011;9485;49.386;8.674;2023-06-14T13:18:31;2.60;;;2.40;;
18711;SDS011;9485;49.386;8.674;2023-06-14T13:23:53;2.67;;;2.47;;
18711;SDS011;9485;49.386;8.674;2023-06-14T13:29:14;2.92;;;2.65;;
18711;SDS011;9485;49.386;8.674;2023-06-14T13:34:36;3.97;;;2.40;;
18711;SDS011;9485;49.386;8.674;2023-06-14T13:39:57;4.20;;;2.85;;
18711;SDS011;9485;49.386;8.674;2023-06-14T13:45:18;3.97;;;2.35;;
18711;SDS011;9485;49.386;8.674;2023-06-14T13:50:40;3.33;;;2.70;;
18711;SDS011;9485;49.386;8.674;2023-06-14T13:56:02;3.17;;;2.33;;
18711;SDS011;9485;49.386;8.674;2023-06-14T14:01:23;2.78;;;2.40;;
18711;SDS011;9485;49.386;8.674;2023-06-14T14:06:45;3.17;;;2.88;;
18711;SDS011;9485;49.386;8.674;2023-06-14T14:12:07;3.20;;;2.90;;
18711;SDS011;9485;49.386;8.674;2023-06-14T14:17:29;3.85;;;2.85;;
18711;SDS011;9485;49.386;8.674;2023-06-14T14:22:51;3.55;;;2.72;;
18711;SDS011;9485;49.386;8.674;2023-06-14T14:28:12;2.83;;;2.63;;
18711;SDS011;9485;49.386;8.674;2023-06-14T14:33:35;2.50;;;2.30;;
18711;SDS011;9485;49.386;8.674;2023-06-14T14:38:57;6.97;;;2.38;;
18711;SDS011;9485;49.386;8.674;2023-06-14T14:44:18;2.88;;;2.67;;
18711;SDS011;9485;49.386;8.674;2023-06-14T14:49:39;2.85;;;2.50;;
18711;SDS011;9485;49.386;8.674;2023-06-14T14:55:02;3.03;;;2.67;;
18711;SDS011;9485;49.386;8.674;2023-06-14T15:00:25;2.78;;;2.58;;
18711;SDS011;9485;49.386;8.674;2023-06-14T15:05:46;3.13;;;2.80;;
18711;SDS011;9485;49.386;8.674;2023-06-14T15:11:08;3.47;;;3.00;;
18711;SDS011;9485;49.386;8.674;2023-06-14T15:16:29;2.78;;;2.58;;
18711;SDS011;9485;49.386;8.674;2023-06-14T15:21:50;2.70;;;2.50;;
18711;SDS011;9485;49.386;8.674;2023-06-14T15:27:12;3.92;;;3.00;;
18711;SDS011;9485;49.386;8.674;2023-06-14T15:32:32;3.97;;;2.80;;
18711;SDS011;9485;49.386;8.674;2023-06-14T15:37:53;3.53;;;2.30;;
18711;SDS011;9485;49.386;8.674;2023-06-14T15:43:16;2.58;;;2.38;;
18711;SDS011;9485;49.386;8.674;2023-06-14T15:48:37;2.63;;;2.42;;
18711;SDS011;9485;49.386;8.674;2023-06-14T15:53:58;2.80;;;2.58;;
18711;SDS011;9485;49.386;8.674;2023-06-14T15:59:20;2.83;;;2.60;;
18711;SDS011;9485;49.386;8.674;2023-06-14T16:04:41;3.30;;;2.85;;
18711;SDS011;9485;49.386;8.674;2023-06-14T16:10:02;3.35;;;2.95;;
18711;SDS011;9485;49.386;8.674;2023-06-14T16:15:25;2.90;;;2.42;;
18711;SDS011;9485;49.386;8.674;2023-06-14T16:20:46;3.80;;;2.80;;
18711;SDS011;9485;49.386;8.674;2023-06-14T16:26:09;4.28;;;2.90;;
18711;SDS011;9485;49.386;8.674;2023-06-14T16:31:32;6.50;;;2.65;;
18711;SDS011;9485;49.386;8.674;2023-06-14T16:36:53;3.40;;;2.50;;
18711;SDS011;9485;49.386;8.674;2023-06-14T16:42:14;5.00;;;2.70;;
18711;SDS011;9485;49.386;8.674;2023-06-14T16:47:36;2.42;;;2.22;;
18711;SDS011;9485;49.386;8.674;2023-06-14T16:52:57;3.90;;;2.53;;
18711;SDS011;9485;49.386;8.674;2023-06-14T16:58:18;3.75;;;2.63;;
18711;SDS011;9485;49.386;8.674;2023-06-14T17:03:40;3.20;;;2.55;;
18711;SDS011;9485;49.386;8.674;2023-06-14T17:09:01;3.33;;;2.60;;
18711;SDS011;9485;49.386;8.674;2023-06-14T17:14:22;2.90;;;2.22;;
18711;SDS011;9485;49.386;8.674;2023-06-14T17:19:45;3.10;;;2.80;;
18711;SDS011;9485;49.386;8.674;2023-06-14T17:25:06;2.83;;;2.63;;
18711;SDS011;9485;49.386;8.674;2023-06-14T17:30:28;4.00;;;2.70;;
18711;SDS011;9485;49.386;8.674;2023-06-14T17:35:50;3.05;;;2.65;;
18711;SDS011;9485;49.386;8.674;2023-06-14T17:41:11;2.63;;;2.42;;
18711;SDS011;9485;49.386;8.674;2023-06-14T17:46:33;3.35;;;2.30;;
18711;SDS011;9485;49.386;8.674;2023-06-14T17:51:55;2.35;;;2.13;;
18711;SDS011;9485;49.386;8.674;2023-06-14T17:57:16;2.80;;;2.60;;
18711;SDS011;9485;49.386;8.674;2023-06-14T18:02:37;2.30;;;2.10;;
18711;SDS011;9485;49.386;8.674;2023-06-14T18:08:00;1.80;;;1.70;;
18711;SDS011;9485;49.386;8.674;2023-06-14T18:13:21;1.90;;;1.80;;
18711;SDS011;9485;49.386;8.674;2023-06-14T18:18:42;2.55;;;2.13;;
18711;SDS011;9485;49.386;8.674;2023-06-14T18:24:05;2.78;;;2.58;;
18711;SDS011;9485;49.386;8.674;2023-06-14T18:29:26;3.90;;;2.05;;
18711;SDS011;9485;49.386;8.674;2023-06-14T18:34:47;2.30;;;1.77;;
18711;SDS011;9485;49.386;8.674;2023-06-14T18:40:10;2.13;;;1.70;;
18711;SDS011;9485;49.386;8.674;2023-06-14T18:45:33;2.75;;;2.17;;
18711;SDS011;9485;49.386;8.674;2023-06-14T18:50:53;4.18;;;2.25;;
18711;SDS011;9485;49.386;8.674;2023-06-14T18:56:16;5.65;;;2.80;;
18711;SDS011;9485;49.386;8.674;2023-06-14T19:01:37;8.05;;;3.58;;
18711;SDS011;9485;49.386;8.674;2023-06-14T19:06:58;3.78;;;2.63;;
18711;SDS011;9485;49.386;8.674;2023-06-14T19:12:21;2.83;;;2.50;;
18711;SDS011;9485;49.386;8.674;2023-06-14T19:17:41;2.75;;;2.28;;
18711;SDS011;9485;49.386;8.674;2023-06-14T19:23:13;2.50;;;2.17;;
18711;SDS011;9485;49.386;8.674;2023-06-14T19:28:35;2.50;;;2.30;;
18711;SDS011;9485;49.386;8.674;2023-06-14T19:33:56;2.25;;;2.05;;
18711;SDS011;9485;49.386;8.674;2023-06-14T19:39:16;2.08;;;1.90;;
18711;SDS011;9485;49.386;8.674;2023-06-14T19:44:39;3.40;;;2.33;;
18711;SDS011;9485;49.386;8.674;2023-06-14T19:50:00;2.50;;;2.30;;
18711;SDS011;9485;49.386;8.674;2023-06-14T19:55:21;2.67;;;2.10;;
18711;SDS011;9485;49.386;8.674;2023-06-14T20:00:43;2.35;;;1.95;;
18711;SDS011;9485;49.386;8.674;2023-06-14T20:06:05;2.55;;;2.30;;
18711;SDS011;9485;49.386;8.674;2023-06-14T20:11:26;2.17;;;1.98;;
18711;SDS011;9485;49.386;8.674;2023-06-14T20:16:48;2.40;;;2.17;;
18711;SDS011;9485;49.386;8.674;2023-06-14T20:22:09;3.10;;;2.35;;
18711;SDS011;9485;49.386;8.674;2023-06-14T20:27:30;2.15;;;1.95;;
18711;SDS011;9485;49.386;8.674;2023-06-14T20:32:52;2.50;;;2.30;;
18711;SDS011;9485;49.386;8.674;2023-06-14T20:38:13;2.10;;;1.88;;
18711;SDS011;9485;49.386;8.674;2023-06-14T20:43:34;2.53;;;2.10;;
18711;SDS011;9485;49.386;8.674;2023-06-14T20:48:56;3.80;;;1.90;;
18711;SDS011;9485;49.386;8.674;2023-06-14T20:54:17;1.90;;;1.80;;
18711;SDS011;9485;49.386;8.674;2023-06-14T20:59:37;1.70;;;1.60;;
18711;SDS011;9485;49.386;8.674;2023-06-14T21:05:00;1.83;;;1.73;;
18711;SDS011;9485;49.386;8.674;2023-06-14T21:10:21;2.25;;;2.05;;
18711;SDS011;9485;49.386;8.674;2023-06-14T21:15:42;2.00;;;1.77;;
18711;SDS011;9485;49.386;8.674;2023-06-14T21:21:04;2.33;;;2.13;;
18711;SDS011;9485;49.386;8.674;2023-06-14T21:26:27;2.08;;;1.90;;
18711;SDS011;9485;49.386;8.674;2023-06-14T21:31:48;2.47;;;1.98;;
18711;SDS011;9485;49.386;8.674;2023-06-14T21:37:10;1.85;;;1.70;;
18711;SDS011;9485;49.386;8.674;2023-06-14T21:42:31;2.42;;;2.22;;
18711;SDS011;9485;49.386;8.674;2023-06-14T21:47:51;3.05;;;1.58;;
18711;SDS011;9485;49.386;8.674;2023-06-14T21:53:13;2.00;;;1.88;;
18711;SDS011;9485;49.386;8.674;2023-06-14T21:58:34;1.80;;;1.70;;
18711;SDS011;9485;49.386;8.674;2023-06-14T22:03:57;1.95;;;1.75;;
18711;SDS011;9485;49.386;8.674;2023-06-14T22:09:19;2.50;;;2.30;;
18711;SDS011;9485;49.386;8.674;2023-06-14T22:14:39;3.90;;;2.40;;
18711;SDS011;9485;49.386;8.674;2023-06-14T22:20:02;1.92;;;1.83;;
18711;SDS011;9485;49.386;8.674;2023-06-14T22:25:27;4.97;;;1.75;;
18711;SDS011;9485;49.386;8.674;2023-06-14T22:30:48;2.50;;;2.30;;
18711;SDS011;9485;49.386;8.674;2023-06-14T22:36:15;3.55;;;2.05;;
18711;SDS011;9485;49.386;8.674;2023-06-14T22:41:37;3.55;;;2.05;;
18711;SDS011;9485;49.386;8.674;2023-06-14T22:46:59;2.40;;;2.20;;
18711;SDS011;9485;49.386;8.674;2023-06-14T22:52:20;2.53;;;2.00;;
18711;SDS011;9485;49.386;8.674;2023-06-14T22:57:46;3.83;;;2.47;;
18711;SDS011;9485;49.386;8.674;2023-06-14T23:03:07;2.38;;;2.13;;
18711;SDS011;9485;49.386;8.674;2023-06-14T23:08:29;3.13;;;2.10;;
18711;SDS011;9485;49.386;8.674;2023-06-14T23:13:52;4.38;;;2.30;;
18711;SDS011;9485;49.386;8.674;2023-06-14T23:19:12;2.10;;;1.95;;
18711;SDS011;9485;49.386;8.674;2023-06-14T23:24:34;2.88;;;2.58;;
18711;SDS011;9485;49.386;8.674;2023-06-14T23:29:57;3.13;;;2.30;;
18711;SDS011;9485;49.386;8.674;2023-06-14T23:35:19;2.45;;;2.25;;
18711;SDS011;9485;49.386;8.674;2023-06-14T23:40:40;2.70;;;2.33;;
18711;SDS011;9485;49.386;8.674;2023-06-14T23:46:01;2.53;;;2.33;;
18711;SDS011;9485;49.386;8.674;2023-06-14T23:51:23;2.55;;;2.25;;
18711;SDS011;9485;49.386;8.674;2023-06-14T23:56:44;2.30;;;2.10;;
